createdAt,value
2022-10-09T00:00:10.262Z,98043.13
2022-10-09T00:02:36.645Z,98037.41
2022-10-09T00:05:03.169Z,98042.63
2022-10-09T00:07:29.644Z,98035.88
2022-10-09T00:09:56.069Z,98034.91
2022-10-09T00:12:22.434Z,98050.47
2022-10-09T00:14:48.862Z,98040.72
2022-10-09T00:17:15.310Z,98032.91
2022-10-09T00:19:41.786Z,98037.66
2022-10-09T00:22:08.207Z,98041.34
2022-10-09T00:24:34.626Z,98034.47
2022-10-09T00:27:01.016Z,98038.72
2022-10-09T00:29:27.456Z,98033.63
2022-10-09T00:31:53.876Z,98034.59
2022-10-09T00:34:20.283Z,98044.78
2022-10-09T00:36:46.703Z,98044.78
2022-10-09T00:39:13.110Z,98042.16
2022-10-09T00:41:39.580Z,98048.34
2022-10-09T00:44:24.726Z,98051.66
2022-10-09T00:46:51.326Z,98045.38
2022-10-09T00:49:26.089Z,98044.91
2022-10-09T00:51:52.547Z,98047.84
2022-10-09T00:54:20.655Z,98039.19
2022-10-09T00:56:47.175Z,98049.38
2022-10-09T00:59:13.675Z,98045.47
2022-10-09T01:01:40.877Z,98045.50
2022-10-09T01:04:07.545Z,98038.94
2022-10-09T01:06:49.319Z,98050.56
2022-10-09T01:09:18.083Z,98048.44
2022-10-09T01:11:47.521Z,98051.63
2022-10-09T01:14:17.020Z,98041.66
2022-10-09T01:16:58.769Z,98039.03
2022-10-09T01:19:28.316Z,98040.66
2022-10-09T01:22:01.023Z,98042.53
2022-10-09T01:24:33.952Z,98036.38
2022-10-09T01:27:03.361Z,98036.97
2022-10-09T01:29:34.578Z,98028.69
2022-10-09T01:32:00.946Z,98038.78
2022-10-09T01:34:27.355Z,98035.44
2022-10-09T01:36:53.891Z,98027.63
2022-10-09T01:39:21.347Z,98035.00
2022-10-09T01:41:48.346Z,98028.56
2022-10-09T01:44:16.066Z,98029.03
2022-10-09T01:46:42.495Z,98029.38
2022-10-09T01:49:08.888Z,98031.16
2022-10-09T01:51:36.743Z,98026.19
2022-10-09T01:54:03.256Z,98023.06
2022-10-09T01:56:31.094Z,98027.44
2022-10-09T01:58:58.578Z,98021.19
2022-10-09T02:01:27.152Z,98022.63
2022-10-09T02:03:53.660Z,98009.97
2022-10-09T02:06:20.316Z,98009.63
2022-10-09T02:08:47.593Z,98005.09
2022-10-09T02:11:17.476Z,98008.66
2022-10-09T02:13:44.413Z,98003.44
2022-10-09T02:16:18.959Z,98000.13
2022-10-09T02:18:57.345Z,98000.56
2022-10-09T02:21:26.201Z,98006.00
2022-10-09T02:23:52.646Z,98002.63
2022-10-09T02:26:19.114Z,97999.53
2022-10-09T02:28:46.244Z,98004.75
2022-10-09T02:31:15.932Z,97994.34
2022-10-09T02:33:42.342Z,97999.75
2022-10-09T02:36:08.896Z,97993.38
2022-10-09T02:38:35.723Z,97995.53
2022-10-09T02:41:02.235Z,98002.41
2022-10-09T02:43:28.656Z,98004.22
2022-10-09T02:45:55.166Z,98000.81
2022-10-09T02:48:21.578Z,97998.66
2022-10-09T02:50:48.064Z,98002.09
2022-10-09T02:53:14.471Z,97996.78
2022-10-09T02:55:40.931Z,97994.78
2022-10-09T02:58:07.363Z,98000.47
2022-10-09T03:00:33.795Z,97997.75
2022-10-09T03:03:00.264Z,98003.06
2022-10-09T03:05:26.800Z,98006.03
2022-10-09T03:07:53.580Z,97998.94
2022-10-09T03:10:20.359Z,98004.03
2022-10-09T03:12:47.237Z,98007.69
2022-10-09T03:15:13.915Z,98006.97
2022-10-09T03:17:40.347Z,98002.09
2022-10-09T03:20:07.190Z,98003.16
2022-10-09T03:22:33.603Z,98005.75
2022-10-09T03:24:59.986Z,97999.69
2022-10-09T03:27:26.452Z,98003.03
2022-10-09T03:29:52.847Z,98001.97
2022-10-09T03:32:19.362Z,98002.09
2022-10-09T03:34:45.836Z,97998.66
2022-10-09T03:37:12.250Z,97998.44
2022-10-09T03:39:38.610Z,97999.88
2022-10-09T03:42:05.074Z,97997.28
2022-10-09T03:44:31.477Z,97996.81
2022-10-09T03:46:57.933Z,98004.63
2022-10-09T03:49:24.466Z,97995.75
2022-10-09T03:51:50.911Z,97992.84
2022-10-09T03:54:17.310Z,97997.09
2022-10-09T03:56:43.765Z,97993.97
2022-10-09T03:59:10.201Z,98003.69
2022-10-09T04:01:36.678Z,97996.09
2022-10-09T04:04:03.169Z,97994.44
2022-10-09T04:06:29.597Z,97998.22
2022-10-09T04:08:57.144Z,97997.09
2022-10-09T04:11:23.562Z,97997.41
2022-10-09T04:13:49.925Z,97996.00
2022-10-09T04:16:16.715Z,97996.66
2022-10-09T04:18:43.471Z,97990.22
2022-10-09T04:21:09.971Z,97992.81
2022-10-09T04:23:36.377Z,97993.53
2022-10-09T04:26:02.868Z,97986.66
2022-10-09T04:28:29.771Z,97985.84
2022-10-09T04:30:59.632Z,97989.59
2022-10-09T04:33:26.466Z,97986.72
2022-10-09T04:35:53.475Z,97993.16
2022-10-09T04:38:20.233Z,97989.00
2022-10-09T04:40:59.290Z,97982.16
2022-10-09T04:43:25.703Z,97991.72
2022-10-09T04:45:52.196Z,97988.41
2022-10-09T04:48:18.646Z,97983.72
2022-10-09T04:50:45.080Z,97979.88
2022-10-09T04:53:11.447Z,97988.53
2022-10-09T04:55:41.609Z,97989.06
2022-10-09T04:58:08.811Z,97980.13
2022-10-09T05:00:35.382Z,97981.56
2022-10-09T05:03:01.904Z,97980.34
2022-10-09T05:05:28.336Z,97982.81
2022-10-09T05:07:54.748Z,97985.31
2022-10-09T05:10:21.214Z,97986.03
2022-10-09T05:12:47.757Z,97982.81
2022-10-09T05:15:14.410Z,97977.84
2022-10-09T05:17:40.925Z,97977.13
2022-10-09T05:20:07.767Z,97977.13
2022-10-09T05:22:34.220Z,97977.31
2022-10-09T05:25:00.639Z,97977.75
2022-10-09T05:27:27.007Z,97973.69
2022-10-09T05:29:53.436Z,97977.75
2022-10-09T05:32:19.868Z,97976.19
2022-10-09T05:34:46.297Z,97982.94
2022-10-09T05:37:12.726Z,97977.03
2022-10-09T05:39:39.523Z,97977.84
2022-10-09T05:42:05.975Z,97975.16
2022-10-09T05:44:32.399Z,97976.09
2022-10-09T05:46:58.851Z,97972.66
2022-10-09T05:49:25.371Z,97982.13
2022-10-09T05:51:51.884Z,97973.06
2022-10-09T05:54:18.320Z,97974.19
2022-10-09T05:56:44.882Z,97974.81
2022-10-09T05:59:15.678Z,97977.41
2022-10-09T06:01:43.050Z,97978.25
2022-10-09T06:04:12.776Z,97972.22
2022-10-09T06:06:39.641Z,97969.63
2022-10-09T06:09:06.642Z,97969.22
2022-10-09T06:11:33.913Z,97975.66
2022-10-09T06:14:00.959Z,97974.75
2022-10-09T06:16:28.675Z,97978.19
2022-10-09T06:18:55.346Z,97978.97
2022-10-09T06:21:22.030Z,97979.91
2022-10-09T06:23:51.778Z,97974.25
2022-10-09T06:26:18.466Z,97977.66
2022-10-09T06:28:45.183Z,97979.16
2022-10-09T06:31:12.665Z,97980.34
2022-10-09T06:33:39.904Z,97983.97
2022-10-09T06:36:10.255Z,97972.81
2022-10-09T06:38:37.323Z,97981.63
2022-10-09T06:41:10.340Z,97976.81
2022-10-09T06:43:36.848Z,97974.22
2022-10-09T06:46:04.303Z,97981.47
2022-10-09T06:48:34.309Z,97984.88
2022-10-09T06:51:05.247Z,97973.13
2022-10-09T06:53:34.108Z,97976.97
2022-10-09T06:56:00.531Z,97969.44
2022-10-09T06:58:27.674Z,97975.31
2022-10-09T07:01:03.672Z,97981.75
2022-10-09T07:03:30.132Z,97980.63
2022-10-09T07:06:05.401Z,97981.00
2022-10-09T07:08:32.305Z,97974.03
2022-10-09T07:10:58.743Z,97980.31
2022-10-09T07:13:25.189Z,97983.00
2022-10-09T07:15:51.678Z,97980.25
2022-10-09T07:18:18.163Z,97981.44
2022-10-09T07:20:44.551Z,97987.84
2022-10-09T07:23:10.971Z,97986.13
2022-10-09T07:25:37.924Z,97979.53
2022-10-09T07:28:04.478Z,97990.19
2022-10-09T07:30:30.908Z,97983.56
2022-10-09T07:32:57.484Z,97980.25
2022-10-09T07:35:23.887Z,97983.03
2022-10-09T07:37:50.352Z,97980.81
2022-10-09T07:40:16.736Z,97981.69
2022-10-09T07:42:43.142Z,97982.50
2022-10-09T07:45:09.733Z,97980.38
2022-10-09T07:47:36.209Z,97978.94
2022-10-09T07:50:02.670Z,97978.72
2022-10-09T07:52:29.128Z,97981.72
2022-10-09T07:54:55.496Z,97978.34
2022-10-09T07:57:21.951Z,97974.44
2022-10-09T07:59:48.375Z,97973.06
2022-10-09T08:02:14.808Z,97975.94
2022-10-09T08:04:41.241Z,97981.38
2022-10-09T08:07:07.693Z,97975.69
2022-10-09T08:09:34.138Z,97974.50
2022-10-09T08:12:00.539Z,97976.16
2022-10-09T08:14:26.906Z,97971.53
2022-10-09T08:16:53.607Z,97962.97
2022-10-09T08:19:21.167Z,97963.00
2022-10-09T08:21:47.630Z,97967.03
2022-10-09T08:24:14.379Z,97968.59
2022-10-09T08:26:40.993Z,97965.38
2022-10-09T08:29:10.964Z,97971.00
2022-10-09T08:31:37.527Z,97973.38
2022-10-09T08:34:04.080Z,97965.88
2022-10-09T08:36:30.686Z,97964.56
2022-10-09T08:38:57.172Z,97965.41
2022-10-09T08:41:32.802Z,97968.84
2022-10-09T08:44:02.942Z,97958.88
2022-10-09T08:46:30.851Z,97963.03
2022-10-09T08:48:57.352Z,97958.22
2022-10-09T08:51:27.703Z,97952.47
2022-10-09T08:54:04.678Z,97954.38
2022-10-09T08:56:31.164Z,97945.06
2022-10-09T08:58:57.633Z,97943.69
2022-10-09T09:01:24.087Z,97942.69
2022-10-09T09:03:53.577Z,97941.69
2022-10-09T09:06:38.263Z,97941.41
2022-10-09T09:09:23.182Z,97934.84
2022-10-09T09:11:51.571Z,97930.94
2022-10-09T09:14:24.918Z,97917.22
2022-10-09T09:17:10.022Z,97928.50
2022-10-09T09:19:39.286Z,97922.53
2022-10-09T09:22:07.938Z,97925.59
2022-10-09T09:24:36.480Z,97928.38
2022-10-09T09:27:04.294Z,97922.38
2022-10-09T09:29:31.145Z,97923.97
2022-10-09T09:31:58.368Z,97916.84
2022-10-09T09:34:28.093Z,97916.19
2022-10-09T09:36:55.582Z,97914.09
2022-10-09T09:40:18.334Z,97917.00
2022-10-09T09:42:09.747Z,97916.50
2022-10-09T09:44:36.648Z,97906.41
2022-10-09T09:47:03.079Z,97911.03
2022-10-09T09:49:30.056Z,97903.13
2022-10-09T09:51:57.713Z,97904.00
2022-10-09T09:54:25.159Z,97906.16
2022-10-09T09:57:15.965Z,97898.84
2022-10-09T09:59:43.599Z,97894.84
2022-10-09T10:02:13.016Z,97881.00
2022-10-09T10:04:48.794Z,97881.06
2022-10-09T10:07:15.230Z,97880.28
2022-10-09T10:09:41.693Z,97868.25
2022-10-09T10:12:12.652Z,97868.22
2022-10-09T10:14:39.070Z,97877.69
2022-10-09T10:17:05.434Z,97866.84
2022-10-09T10:19:35.255Z,97861.78
2022-10-09T10:22:02.877Z,97870.94
2022-10-09T10:24:33.001Z,97858.22
2022-10-09T10:27:07.290Z,97860.25
2022-10-09T10:29:36.082Z,97857.03
2022-10-09T10:32:02.479Z,97851.03
2022-10-09T10:34:30.021Z,97843.78
2022-10-09T10:37:02.487Z,97854.72
2022-10-09T10:39:50.171Z,97834.47
2022-10-09T10:42:21.861Z,97830.00
2022-10-09T10:45:00.515Z,97819.19
2022-10-09T10:47:27.684Z,97819.47
2022-10-09T10:49:54.167Z,97824.81
2022-10-09T10:52:24.794Z,97827.72
2022-10-09T10:54:55.365Z,97811.59
2022-10-09T10:57:21.828Z,97810.63
2022-10-09T10:59:51.318Z,97814.13
2022-10-09T11:02:17.726Z,97796.31
2022-10-09T11:04:53.335Z,97803.31
2022-10-09T11:07:31.488Z,97802.91
2022-10-09T11:09:57.883Z,97801.13
2022-10-09T11:12:43.750Z,97788.94
2022-10-09T11:15:37.571Z,97793.22
2022-10-09T11:18:20.388Z,97792.97
2022-10-09T11:20:52.931Z,97788.56
2022-10-09T11:23:38.103Z,97788.38
2022-10-09T11:26:23.304Z,97781.09
2022-10-09T11:28:52.466Z,97780.41
2022-10-09T11:31:19.698Z,97776.31
2022-10-09T11:33:48.073Z,97777.97
2022-10-09T11:36:20.682Z,97774.66
2022-10-09T11:38:49.347Z,97769.44
2022-10-09T11:41:15.748Z,97759.44
2022-10-09T11:43:48.388Z,97759.09
2022-10-09T11:46:20.911Z,97750.31
2022-10-09T11:48:47.390Z,97750.63
2022-10-09T11:51:23.506Z,97744.16
2022-10-09T11:53:50.524Z,97736.53
2022-10-09T11:56:21.774Z,97731.13
2022-10-09T11:58:58.553Z,97718.91
2022-10-09T12:01:26.402Z,97707.28
2022-10-09T12:04:00.735Z,97713.06
2022-10-09T12:06:27.283Z,97708.16
2022-10-09T12:08:54.961Z,97688.94
2022-10-09T12:11:21.337Z,97684.13
2022-10-09T12:13:51.986Z,97689.44
2022-10-09T12:16:38.351Z,97680.91
2022-10-09T12:19:05.724Z,97669.75
2022-10-09T12:21:37.126Z,97668.47
2022-10-09T12:24:03.602Z,97663.19
2022-10-09T12:26:30.135Z,97660.47
2022-10-09T12:28:57.934Z,97648.50
2022-10-09T12:31:25.702Z,97647.50
2022-10-09T12:33:53.591Z,97647.78
2022-10-09T12:36:24.043Z,97654.41
2022-10-09T12:38:50.628Z,97641.84
2022-10-09T12:41:30.451Z,97646.34
2022-10-09T12:43:57.345Z,97643.50
2022-10-09T12:46:29.890Z,97642.88
2022-10-09T12:48:56.709Z,97627.72
2022-10-09T12:51:24.853Z,97632.00
2022-10-09T12:53:51.864Z,97627.59
2022-10-09T12:56:32.423Z,97623.59
2022-10-09T12:58:59.078Z,97619.16
2022-10-09T13:01:25.529Z,97618.28
2022-10-09T13:03:53.625Z,97603.72
2022-10-09T13:06:20.961Z,97600.91
2022-10-09T13:08:51.621Z,97607.69
2022-10-09T13:11:18.740Z,97601.19
2022-10-09T13:13:48.783Z,97594.09
2022-10-09T13:16:15.315Z,97601.31
2022-10-09T13:18:41.817Z,97597.41
2022-10-09T13:21:20.240Z,97597.88
2022-10-09T13:23:46.709Z,97592.69
2022-10-09T13:26:17.028Z,97591.78
2022-10-09T13:28:43.738Z,97581.94
2022-10-09T13:31:10.286Z,97593.53
2022-10-09T13:33:36.722Z,97592.41
2022-10-09T13:36:03.196Z,97586.88
2022-10-09T13:38:34.619Z,97587.94
2022-10-09T13:41:01.449Z,97583.00
2022-10-09T13:43:28.849Z,97581.03
2022-10-09T13:45:55.394Z,97580.13
2022-10-09T13:48:21.908Z,97575.81
2022-10-09T13:50:48.355Z,97572.56
2022-10-09T13:53:14.769Z,97567.41
2022-10-09T13:55:41.205Z,97563.13
2022-10-09T13:58:07.644Z,97561.09
2022-10-09T14:00:34.338Z,97561.16
2022-10-09T14:03:00.738Z,97557.91
2022-10-09T14:05:27.230Z,97559.13
2022-10-09T14:07:53.986Z,97546.22
2022-10-09T14:10:23.888Z,97547.69
2022-10-09T14:12:51.596Z,97540.03
2022-10-09T14:15:18.579Z,97538.97
2022-10-09T14:17:45.019Z,97538.78
2022-10-09T14:20:11.478Z,97537.44
2022-10-09T14:22:37.917Z,97545.59
2022-10-09T14:25:04.451Z,97527.63
2022-10-09T14:27:30.902Z,97529.28
2022-10-09T14:29:57.466Z,97522.72
2022-10-09T14:32:23.982Z,97522.06
2022-10-09T14:34:50.407Z,97518.19
2022-10-09T14:37:29.639Z,97522.28
2022-10-09T14:39:56.468Z,97510.88
2022-10-09T14:42:23.068Z,97508.44
2022-10-09T14:44:49.499Z,97507.81
2022-10-09T14:47:15.904Z,97497.59
2022-10-09T14:49:42.289Z,97501.03
2022-10-09T14:52:08.741Z,97503.06
2022-10-09T14:54:35.139Z,97496.91
2022-10-09T14:57:01.736Z,97491.19
2022-10-09T14:59:28.207Z,97493.66
2022-10-09T15:01:54.682Z,97487.13
2022-10-09T15:04:21.060Z,97480.53
2022-10-09T15:06:47.506Z,97473.97
2022-10-09T15:09:13.899Z,97475.38
2022-10-09T15:11:40.311Z,97478.03
2022-10-09T15:14:06.856Z,97468.66
2022-10-09T15:16:33.427Z,97463.31
2022-10-09T15:18:59.848Z,97470.03
2022-10-09T15:21:27.768Z,97469.41
2022-10-09T15:23:54.926Z,97461.88
2022-10-09T15:26:21.498Z,97458.19
2022-10-09T15:28:47.997Z,97453.84
2022-10-09T15:31:22.144Z,97450.59
2022-10-09T15:33:51.702Z,97453.00
2022-10-09T15:36:18.685Z,97444.81
2022-10-09T15:38:45.078Z,97442.94
2022-10-09T15:41:22.099Z,97439.03
2022-10-09T15:43:48.808Z,97432.09
2022-10-09T15:46:15.920Z,97431.28
2022-10-09T15:48:42.379Z,97431.63
2022-10-09T15:51:13.342Z,97428.75
2022-10-09T15:53:43.451Z,97427.44
2022-10-09T15:56:10.450Z,97423.69
2022-10-09T15:58:36.881Z,97421.06
2022-10-09T16:01:07.458Z,97419.59
2022-10-09T16:03:36.968Z,97418.56
2022-10-09T16:06:04.638Z,97412.22
2022-10-09T16:08:31.060Z,97411.34
2022-10-09T16:10:57.659Z,97412.09
2022-10-09T16:13:24.730Z,97400.81
2022-10-09T16:15:51.164Z,97408.09
2022-10-09T16:18:18.578Z,97403.53
2022-10-09T16:20:44.959Z,97405.38
2022-10-09T16:23:11.600Z,97402.19
2022-10-09T16:25:38.330Z,97401.47
2022-10-09T16:28:05.951Z,97400.44
2022-10-09T16:30:33.254Z,97399.41
2022-10-09T16:32:59.660Z,97404.50
2022-10-09T16:35:26.067Z,97399.47
2022-10-09T16:37:52.626Z,97400.25
2022-10-09T16:40:19.036Z,97398.34
2022-10-09T16:42:45.545Z,97398.66
2022-10-09T16:45:11.994Z,97398.47
2022-10-09T16:47:40.380Z,97395.41
2022-10-09T16:50:07.299Z,97393.50
2022-10-09T16:52:33.753Z,97392.84
2022-10-09T16:55:00.767Z,97390.16
2022-10-09T16:57:27.388Z,97391.44
2022-10-09T16:59:53.792Z,97393.41
2022-10-09T17:02:20.212Z,97395.19
2022-10-09T17:04:46.611Z,97391.31
2022-10-09T17:07:13.068Z,97385.66
2022-10-09T17:09:40.488Z,97393.41
2022-10-09T17:12:09.652Z,97386.75
2022-10-09T17:14:36.995Z,97387.78
2022-10-09T17:17:04.190Z,97389.19
2022-10-09T17:19:30.855Z,97391.38
2022-10-09T17:21:57.313Z,97391.03
2022-10-09T17:24:23.704Z,97393.03
2022-10-09T17:26:50.073Z,97395.41
2022-10-09T17:29:16.514Z,97398.56
2022-10-09T17:31:43.092Z,97392.34
2022-10-09T17:34:10.555Z,97390.19
2022-10-09T17:36:37.827Z,97395.78
2022-10-09T17:39:06.300Z,97394.28
2022-10-09T17:41:33.029Z,97390.38
2022-10-09T17:43:59.624Z,97396.13
2022-10-09T17:46:26.432Z,97392.53
2022-10-09T17:48:53.468Z,97380.34
2022-10-09T17:51:25.331Z,97384.97
2022-10-09T17:53:52.068Z,97374.28
2022-10-09T17:56:18.749Z,97372.28
2022-10-09T17:58:47.417Z,97368.28
2022-10-09T18:01:14.419Z,97369.03
2022-10-09T18:03:41.422Z,97363.97
2022-10-09T18:06:08.763Z,97365.28
2022-10-09T18:08:35.571Z,97371.41
2022-10-09T18:11:03.426Z,97365.28
2022-10-09T18:13:29.950Z,97356.44
2022-10-09T18:15:56.346Z,97353.25
2022-10-09T18:18:22.769Z,97354.34
2022-10-09T18:20:49.134Z,97346.88
2022-10-09T18:23:19.446Z,97348.88
2022-10-09T18:25:48.275Z,97351.13
2022-10-09T18:28:15.121Z,97346.59
2022-10-09T18:30:42.559Z,97341.56
2022-10-09T18:33:09.215Z,97350.09
2022-10-09T18:35:36.323Z,97342.69
2022-10-09T18:38:02.778Z,97343.53
2022-10-09T18:40:29.140Z,97341.63
2022-10-09T18:42:55.549Z,97337.03
2022-10-09T18:45:21.978Z,97337.84
2022-10-09T18:47:48.429Z,97332.19
2022-10-09T18:50:14.970Z,97331.44
2022-10-09T18:52:41.640Z,97328.09
2022-10-09T18:55:08.820Z,97323.72
2022-10-09T18:57:35.264Z,97324.34
2022-10-09T19:00:02.248Z,97319.91
2022-10-09T19:02:28.709Z,97319.91
2022-10-09T19:04:55.196Z,97316.78
2022-10-09T19:07:21.614Z,97319.38
2022-10-09T19:09:56.273Z,97319.31
2022-10-09T19:12:23.662Z,97312.31
2022-10-09T19:14:50.088Z,97314.59
2022-10-09T19:17:16.486Z,97311.94
2022-10-09T19:19:42.952Z,97307.38
2022-10-09T19:22:14.069Z,97304.25
2022-10-09T19:24:41.831Z,97301.34
2022-10-09T19:27:08.310Z,97299.09
2022-10-09T19:29:34.836Z,97294.25
2022-10-09T19:32:01.358Z,97293.22
2022-10-09T19:34:27.858Z,97291.94
2022-10-09T19:36:54.285Z,97282.78
2022-10-09T19:39:22.216Z,97286.84
2022-10-09T19:41:49.414Z,97289.06
2022-10-09T19:44:15.837Z,97279.16
2022-10-09T19:46:42.263Z,97282.78
2022-10-09T19:49:08.693Z,97289.03
2022-10-09T19:51:35.531Z,97277.13
2022-10-09T19:54:02.466Z,97295.03
2022-10-09T19:56:29.921Z,97292.59
2022-10-09T19:58:56.613Z,97288.56
2022-10-09T20:01:23.861Z,97292.03
2022-10-09T20:03:54.250Z,97289.22
2022-10-09T20:06:20.621Z,97278.91
2022-10-09T20:08:47.109Z,97284.47
2022-10-09T20:11:14.027Z,97290.91
2022-10-09T20:13:41.055Z,97285.31
2022-10-09T20:16:09.025Z,97281.00
2022-10-09T20:18:35.471Z,97280.50
2022-10-09T20:21:01.858Z,97273.88
2022-10-09T20:23:28.261Z,97277.31
2022-10-09T20:26:01.357Z,97277.47
2022-10-09T20:28:28.098Z,97270.22
2022-10-09T20:30:58.368Z,97279.56
2022-10-09T20:33:24.810Z,97266.94
2022-10-09T20:35:51.310Z,97266.66
2022-10-09T20:38:24.835Z,97269.56
2022-10-09T20:40:52.250Z,97267.47
2022-10-09T20:43:18.659Z,97257.91
2022-10-09T20:45:45.130Z,97268.50
2022-10-09T20:48:11.845Z,97260.66
2022-10-09T20:50:38.806Z,97256.09
2022-10-09T20:53:05.537Z,97257.00
2022-10-09T20:55:32.354Z,97259.66
2022-10-09T20:57:58.754Z,97257.47
2022-10-09T21:00:25.196Z,97255.19
2022-10-09T21:02:51.942Z,97255.03
2022-10-09T21:05:18.614Z,97252.31
2022-10-09T21:07:45.059Z,97253.94
2022-10-09T21:10:11.521Z,97249.75
2022-10-09T21:12:37.971Z,97249.88
2022-10-09T21:15:05.108Z,97255.06
2022-10-09T21:17:31.671Z,97252.56
2022-10-09T21:19:58.247Z,97255.19
2022-10-09T21:22:25.257Z,97246.66
2022-10-09T21:24:51.689Z,97243.59
2022-10-09T21:27:18.101Z,97241.22
2022-10-09T21:29:44.519Z,97242.75
2022-10-09T21:32:10.950Z,97239.72
2022-10-09T21:34:37.419Z,97244.03
2022-10-09T21:39:50.345Z,97236.78
2022-10-09T21:42:16.784Z,97240.09
2022-10-09T21:44:43.195Z,97230.09
2022-10-09T21:47:11.572Z,97231.00
2022-10-09T21:49:38.391Z,97230.00
2022-10-09T21:52:04.811Z,97228.09
2022-10-09T21:54:31.203Z,97224.56
2022-10-09T21:56:57.609Z,97221.63
2022-10-09T21:59:24.040Z,97221.75
2022-10-09T22:01:50.458Z,97220.09
2022-10-09T22:04:16.868Z,97218.72
2022-10-09T22:06:43.497Z,97216.09
2022-10-09T22:09:10.667Z,97205.47
2022-10-09T22:11:37.113Z,97210.25
2022-10-09T22:14:04.584Z,97201.81
2022-10-09T22:16:31.187Z,97210.06
2022-10-09T22:18:57.610Z,97204.34
2022-10-09T22:21:24.006Z,97207.28
2022-10-09T22:23:50.582Z,97199.06
2022-10-09T22:26:18.649Z,97200.91
2022-10-09T22:28:45.594Z,97203.84
2022-10-09T22:31:16.826Z,97196.00
2022-10-09T22:33:43.418Z,97196.75
2022-10-09T22:36:11.288Z,97204.66
2022-10-09T22:38:37.946Z,97210.72
2022-10-09T22:41:08.794Z,97205.09
2022-10-09T22:43:35.548Z,97204.38
2022-10-09T22:46:15.468Z,97194.53
2022-10-09T22:48:42.206Z,97197.81
2022-10-09T22:51:09.782Z,97192.19
2022-10-09T22:53:36.401Z,97187.19
2022-10-09T22:56:06.660Z,97182.28
2022-10-09T22:58:33.187Z,97174.91
2022-10-09T23:01:19.678Z,97179.66
2022-10-09T23:03:46.179Z,97180.72
2022-10-09T23:06:13.931Z,97177.09
2022-10-09T23:08:41.128Z,97171.56
2022-10-09T23:11:07.947Z,97177.28
2022-10-09T23:13:34.520Z,97172.81
2022-10-09T23:16:01.472Z,97162.09
2022-10-09T23:18:28.065Z,97177.09
2022-10-09T23:20:54.563Z,97160.75
2022-10-09T23:23:20.993Z,97167.00
2022-10-09T23:25:47.367Z,97176.38
2022-10-09T23:28:13.847Z,97167.00
2022-10-09T23:30:40.347Z,97160.34
2022-10-09T23:33:06.769Z,97171.44
2022-10-09T23:35:33.191Z,97157.44
2022-10-09T23:37:59.599Z,97163.34
2022-10-09T23:40:26.070Z,97161.72
2022-10-09T23:42:52.768Z,97164.34
2022-10-09T23:45:19.273Z,97159.53
2022-10-09T23:47:45.653Z,97158.44
2022-10-09T23:50:12.100Z,97159.63
2022-10-09T23:52:38.551Z,97161.34
2022-10-09T23:55:05.178Z,97157.88
2022-10-09T23:57:32.885Z,97165.06
2022-10-09T23:59:59.305Z,97169.88
